Time;durP1;ratioP1;P1;durP2;ratioP2;P2;SDS_P1;SDS_P2;PMS_P1;PMS_P2;Temp;Humidity;BMP_temperature;BMP_pressure;BME280_temperature;BME280_humidity;BME280_pressure;Samples;Min_cycle;Max_cycle;Signal;HPM_P1;HPM_P2
2023/06/03 00:00:58;;;;;;;;;12.00;9.00;;;;;15.26;69.25;101753.13;5077422;27;45242;-77
2023/06/03 00:03:23;;;;;;;;;15.00;11.33;;;;;15.21;69.29;101747.06;5077659;27;46455;-78
2023/06/03 00:05:49;;;;;;;;;13.00;9.00;;;;;15.17;69.08;101748.03;5077531;27;45279;-79
2023/06/03 00:08:15;;;;;;;;;10.33;9.00;;;;;15.25;69.19;101761.13;5076156;28;45406;-78
2023/06/03 00:10:40;;;;;;;;;15.00;10.67;;;;;15.24;69.65;101759.38;5077430;27;45416;-76
2023/06/03 00:13:05;;;;;;;;;17.33;10.67;;;;;15.19;69.69;101756.84;5077396;27;46462;-77
2023/06/03 00:15:31;;;;;;;;;13.67;12.33;;;;;15.12;69.79;101745.50;5077375;27;45240;-76
2023/06/03 00:17:56;;;;;;;;;12.67;11.00;;;;;15.20;69.59;101757.72;5077110;27;45459;-77
2023/06/03 00:20:21;;;;;;;;;9.33;9.33;;;;;15.20;70.41;101758.56;5077641;27;45590;-76
2023/06/03 00:22:47;;;;;;;;;12.00;11.00;;;;;15.14;70.30;101743.69;5077532;27;46381;-77
2023/06/03 00:25:12;;;;;;;;;15.33;13.67;;;;;15.16;70.87;101751.59;5077429;27;45357;-78
2023/06/03 00:27:38;;;;;;;;;14.00;11.67;;;;;15.06;70.94;101732.41;5077582;27;45577;-78
2023/06/03 00:30:05;;;;;;;;;19.67;15.33;;;;;15.00;71.24;101723.72;5077326;27;45534;-78
2023/06/03 00:32:31;;;;;;;;;15.67;11.33;;;;;15.12;71.57;101744.66;5076688;27;46236;-78
2023/06/03 00:34:57;;;;;;;;;15.33;14.00;;;;;15.09;71.69;101737.63;5077177;28;45357;-78
2023/06/03 00:37:22;;;;;;;;;18.67;14.00;;;;;15.03;71.95;101739.56;5077415;27;45266;-78
2023/06/03 00:39:47;;;;;;;;;16.33;12.33;;;;;15.01;71.61;101730.78;5079577;27;45360;-78
2023/06/03 00:42:13;;;;;;;;;17.33;16.33;;;;;15.06;72.15;101744.78;5080275;27;46285;-78
2023/06/03 00:44:38;;;;;;;;;18.33;15.33;;;;;14.96;72.67;101729.13;5080397;27;45247;-78
2023/06/03 00:47:04;;;;;;;;;17.00;15.67;;;;;15.04;72.31;101742.19;5080777;27;45420;-78
2023/06/03 00:49:30;;;;;;;;;14.67;13.67;;;;;15.05;72.14;101746.59;5079428;28;45605;-78
2023/06/03 00:51:56;;;;;;;;;20.67;12.00;;;;;15.04;71.03;101744.81;5080395;27;47485;-80
2023/06/03 00:54:22;;;;;;;;;17.00;15.33;;;;;15.02;72.67;101741.34;5080421;27;45507;-79
2023/06/03 00:56:47;;;;;;;;;13.00;12.67;;;;;14.97;72.12;101728.22;5080361;27;45217;-80
2023/06/03 00:59:15;;;;;;;;;17.33;16.33;;;;;14.93;72.58;101718.59;5080659;27;45424;-80
2023/06/03 01:01:44;;;;;;;;;16.33;16.33;;;;;14.76;73.11;101689.84;5080218;27;46573;-77
2023/06/03 01:04:11;;;;;;;;;17.67;14.33;;;;;14.95;73.10;101719.41;5080364;27;45174;-80
2023/06/03 01:06:53;;;;;;;;;20.67;17.67;;;;;15.01;73.08;101725.47;5080307;27;45222;-81
2023/06/03 01:09:33;;;;;;;;;16.67;16.67;;;;;15.01;72.74;101723.69;5060155;28;45232;-79
2023/06/03 01:12:33;;;;;;;;;22.67;17.33;;;;;15.02;72.47;101727.25;5059380;28;46459;-79
2023/06/03 01:15:03;;;;;;;;;21.67;18.67;;;;;14.96;72.98;101718.50;5059752;28;45235;-79
2023/06/03 01:17:31;;;;;;;;;17.00;13.00;;;;;15.01;72.99;101717.53;5059999;28;45333;-79
2023/06/03 01:19:59;;;;;;;;;20.33;16.67;;;;;14.97;73.73;101711.41;5060008;28;45622;-79
2023/06/03 01:22:26;;;;;;;;;23.33;19.67;;;;;15.00;73.53;101713.97;5068039;27;46327;-79
2023/06/03 01:25:03;;;;;;;;;21.67;21.00;;;;;14.97;73.22;101717.59;5080118;27;45344;-79
2023/06/03 01:27:29;;;;;;;;;20.33;18.00;;;;;14.90;74.15;101707.19;5080058;27;45422;-78
2023/06/03 01:29:55;;;;;;;;;22.33;21.00;;;;;14.84;74.19;101689.66;5080107;27;45502;-78
2023/06/03 01:32:20;;;;;;;;;24.67;20.67;;;;;14.94;74.22;101707.09;5079568;27;45390;-78
2023/06/03 01:34:46;;;;;;;;;20.33;20.33;;;;;14.88;74.08;101704.56;5079920;28;45234;-77
2023/06/03 01:37:12;;;;;;;;;24.33;19.33;;;;;14.86;74.69;101701.09;5079940;27;45320;-79
2023/06/03 01:39:42;;;;;;;;;23.00;19.33;;;;;14.83;74.72;101695.88;5080108;27;45305;-79
2023/06/03 01:42:09;;;;;;;;;20.67;19.00;;;;;14.93;74.89;101717.72;5079446;27;46718;-78
2023/06/03 01:44:35;;;;;;;;;23.33;21.00;;;;;14.86;74.51;101708.19;5079513;27;45806;-78
2023/06/03 01:47:00;;;;;;;;;22.00;20.00;;;;;14.85;75.34;101715.25;5079844;27;45257;-80
2023/06/03 01:49:26;;;;;;;;;26.67;21.67;;;;;14.89;75.15;101718.72;5079452;27;45439;-77
2023/06/03 01:51:51;;;;;;;;;18.67;14.67;;;;;14.73;75.33;101694.38;5079617;27;45437;-78
2023/06/03 01:54:18;;;;;;;;;25.33;24.00;;;;;14.83;75.60;101711.78;5079698;27;45371;-80
2023/06/03 01:56:43;;;;;;;;;20.67;18.67;;;;;14.77;75.29;101696.03;5079271;28;45303;-78
2023/06/03 01:59:09;;;;;;;;;27.67;23.67;;;;;14.84;75.50;101708.22;5079418;27;45454;-81
2023/06/03 02:01:36;;;;;;;;;22.67;20.00;;;;;14.79;75.64;101710.97;5079267;27;45474;-81
2023/06/03 02:04:01;;;;;;;;;29.00;23.33;;;;;14.80;75.58;101720.69;5079276;27;45151;-79
2023/06/03 02:06:27;;;;;;;;;26.33;22.33;;;;;14.79;76.33;101716.28;5079334;27;45294;-77
2023/06/03 02:08:52;;;;;;;;;24.33;22.00;;;;;14.74;76.27;101696.97;5079499;27;45413;-78
2023/06/03 02:11:17;;;;;;;;;28.67;23.00;;;;;14.79;75.72;101702.16;5079688;27;47079;-78
2023/06/03 02:13:43;;;;;;;;;25.67;22.33;;;;;14.67;76.56;101689.19;5079187;27;45475;-78
2023/06/03 02:16:08;;;;;;;;;22.00;21.00;;;;;14.69;76.33;101690.91;5079035;27;45798;-77
2023/06/03 02:18:34;;;;;;;;;27.33;25.67;;;;;14.74;76.14;101710.22;5079718;27;45386;-78
2023/06/03 02:21:00;;;;;;;;;24.00;22.67;;;;;14.73;76.29;101697.88;5078862;27;46854;-78
2023/06/03 02:23:26;;;;;;;;;31.33;27.33;;;;;14.74;76.89;101693.44;5078806;27;45301;-78
2023/06/03 02:25:51;;;;;;;;;32.67;27.67;;;;;14.74;76.34;101691.69;5079163;27;45505;-79
2023/06/03 02:28:16;;;;;;;;;23.00;23.00;;;;;14.61;76.78;101671.66;5079191;27;45315;-78
2023/06/03 02:30:42;;;;;;;;;27.67;25.33;;;;;14.69;76.98;101685.59;5078982;27;46434;-78
2023/06/03 02:33:08;;;;;;;;;23.33;20.33;;;;;14.68;76.92;101685.63;5079098;27;45339;-78
2023/06/03 02:35:34;;;;;;;;;28.00;27.33;;;;;14.61;76.96;101682.25;5078871;27;45365;-78
2023/06/03 02:37:59;;;;;;;;;27.33;25.00;;;;;14.68;77.21;101698.91;5079202;27;45454;-78
2023/06/03 02:40:24;;;;;;;;;30.33;27.67;;;;;14.64;77.06;101692.81;5078681;27;46088;-78
2023/06/03 02:42:50;;;;;;;;;29.67;26.67;;;;;14.66;76.87;101690.13;5079077;27;45224;-78
2023/06/03 02:45:15;;;;;;;;;30.00;24.00;;;;;14.69;77.19;101690.03;5077442;28;45239;-79
2023/06/03 02:47:40;;;;;;;;;23.33;22.67;;;;;14.70;76.90;101694.44;5079043;27;45371;-79
2023/06/03 02:50:06;;;;;;;;;30.00;27.33;;;;;14.58;77.16;101683.19;5078186;27;46573;-78
2023/06/03 02:52:33;;;;;;;;;26.67;25.67;;;;;14.34;77.74;101633.44;5078499;28;45293;-76
2023/06/03 02:55:00;;;;;;;;;29.67;27.00;;;;;14.66;77.84;101690.13;5078926;27;45364;-76
2023/06/03 02:57:26;;;;;;;;;29.00;27.67;;;;;14.60;78.15;101691.97;5078675;27;45316;-76
2023/06/03 02:59:51;;;;;;;;;31.33;29.00;;;;;14.61;78.43;101692.88;5078247;27;45519;-77
2023/06/03 03:02:19;;;;;;;;;32.33;26.67;;;;;14.63;78.21;101691.06;5077546;27;45309;-77
2023/06/03 03:04:44;;;;;;;;;35.00;29.00;;;;;14.54;78.85;101681.53;5078174;27;45235;-75
2023/06/03 03:07:10;;;;;;;;;37.33;30.33;;;;;14.56;78.34;101679.69;5078582;27;45459;-75
2023/06/03 03:09:35;;;;;;;;;32.67;25.33;;;;;14.55;78.40;101679.72;5078242;27;45559;-74
2023/06/03 03:12:01;;;;;;;;;32.33;30.33;;;;;14.61;78.36;101688.44;5078196;27;45455;-77
2023/06/03 03:14:26;;;;;;;;;32.33;28.00;;;;;14.61;78.71;101684.91;5078596;27;45285;-77
2023/06/03 03:16:52;;;;;;;;;30.33;28.33;;;;;14.54;78.32;101675.38;5078470;27;45365;-78
2023/06/03 03:19:18;;;;;;;;;32.33;28.67;;;;;14.57;78.70;101688.53;5077927;27;45236;-74
2023/06/03 03:21:43;;;;;;;;;30.00;27.33;;;;;14.56;78.65;101684.13;5078039;28;45382;-74
2023/06/03 03:24:10;;;;;;;;;31.33;28.33;;;;;14.48;78.81;101676.38;5078163;28;45415;-74
2023/06/03 03:26:36;;;;;;;;;34.00;31.00;;;;;14.51;79.07;101686.00;5078416;27;45522;-74
2023/06/03 03:29:02;;;;;;;;;33.33;29.67;;;;;14.52;78.91;101686.00;5077751;27;46478;-75
2023/06/03 03:31:28;;;;;;;;;29.00;26.67;;;;;14.38;78.91;101656.31;5077647;27;45339;-75
2023/06/03 03:33:53;;;;;;;;;30.33;27.00;;;;;14.57;78.31;101692.03;5077975;28;45385;-74
2023/06/03 03:36:22;;;;;;;;;34.67;29.67;;;;;14.52;78.71;101682.47;5077859;27;45192;-77
2023/06/03 03:38:59;;;;;;;;;31.67;26.33;;;;;14.48;78.73;101679.03;5077944;27;45209;-77
2023/06/03 03:41:25;;;;;;;;;36.33;29.00;;;;;14.46;79.06;101675.53;5077722;27;45463;-76
2023/06/03 03:43:51;;;;;;;;;36.00;30.67;;;;;14.49;79.02;101685.19;5078065;27;45246;-74
2023/06/03 03:46:17;;;;;;;;;27.33;25.00;;;;;14.51;79.27;101686.00;5077562;27;45342;-75
2023/06/03 03:48:42;;;;;;;;;31.67;29.00;;;;;14.49;79.44;101672.81;5077541;27;45491;-75
2023/06/03 03:51:08;;;;;;;;;34.00;28.00;;;;;14.51;78.99;101673.66;5077582;27;45328;-75
2023/06/03 03:53:35;;;;;;;;;32.00;30.67;;;;;14.47;79.04;101671.13;5077755;27;45918;-75
2023/06/03 03:56:01;;;;;;;;;36.33;29.67;;;;;14.49;79.24;101678.09;5078072;27;45296;-74
2023/06/03 03:58:42;;;;;;;;;31.67;29.33;;;;;14.54;78.67;101683.31;5077684;27;46879;-74
2023/06/03 04:01:12;;;;;;;;;33.33;30.67;;;;;14.54;78.70;101673.56;5077322;27;45335;-75
2023/06/03 04:03:42;;;;;;;;;33.00;29.33;;;;;14.52;79.18;101675.41;5077650;27;45607;-77
2023/06/03 04:06:13;;;;;;;;;39.00;29.67;;;;;14.51;79.41;101672.75;5077884;27;45363;-74
2023/06/03 04:08:45;;;;;;;;;36.33;30.67;;;;;14.52;79.23;101679.81;5077392;28;46314;-72
2023/06/03 04:11:35;;;;;;;;;35.00;30.33;;;;;14.57;78.31;101681.44;5077012;28;45209;-74
2023/06/03 04:14:01;;;;;;;;;33.67;30.00;;;;;14.48;79.09;101659.59;5077515;27;45434;-73
2023/06/03 04:16:53;;;;;;;;;29.00;26.00;;;;;14.60;78.91;101684.00;5062749;28;45436;-77
2023/06/03 04:19:27;;;;;;;;;31.67;29.00;;;;;14.61;78.70;101679.59;5080697;27;46050;-74
2023/06/03 04:21:53;;;;;;;;;30.00;28.33;;;;;14.62;78.93;101681.34;5080560;27;45485;-73
2023/06/03 04:24:19;;;;;;;;;26.33;25.33;;;;;14.64;78.42;101674.25;5080805;27;45421;-73
2023/06/03 04:26:44;;;;;;;;;24.67;24.33;;;;;14.60;78.57;101667.25;5080952;27;45244;-74
2023/06/03 04:29:10;;;;;;;;;30.67;28.67;;;;;14.63;78.25;101662.75;5080330;27;46630;-77
2023/06/03 04:31:35;;;;;;;;;35.67;28.00;;;;;14.75;78.06;101682.78;5080766;27;45349;-74
2023/06/03 04:34:02;;;;;;;;;37.67;31.33;;;;;14.55;78.31;101643.53;5080251;27;45316;-76
2023/06/03 04:36:27;;;;;;;;;32.33;29.33;;;;;14.73;78.07;101671.38;5081001;27;45297;-75
2023/06/03 04:38:53;;;;;;;;;32.33;29.67;;;;;14.82;77.96;101677.34;5080675;27;45346;-78
2023/06/03 04:41:18;;;;;;;;;33.00;29.67;;;;;14.85;77.79;101675.47;5080287;28;45462;-78
2023/06/03 04:43:45;;;;;;;;;33.33;29.67;;;;;14.83;77.73;101679.97;5080772;27;45319;-78
2023/06/03 04:46:10;;;;;;;;;37.00;33.00;;;;;14.93;77.33;101693.88;5080085;27;45447;-77
2023/06/03 04:48:36;;;;;;;;;37.67;29.67;;;;;14.86;77.33;101684.31;5080285;27;45476;-77
2023/06/03 04:51:06;;;;;;;;;37.33;29.67;;;;;14.91;77.65;101687.72;5080336;27;45435;-77
2023/06/03 04:53:32;;;;;;;;;35.00;30.33;;;;;15.04;76.79;101699.75;5080635;27;45342;-78
2023/06/03 04:55:57;;;;;;;;;33.33;29.67;;;;;14.99;76.61;101685.75;5080569;27;45477;-76
2023/06/03 04:58:24;;;;;;;;;33.00;31.33;;;;;15.00;76.90;101678.66;5080582;27;46512;-76
2023/06/03 05:00:49;;;;;;;;;32.67;29.67;;;;;15.09;76.87;101689.91;5080266;27;45433;-78
2023/06/03 05:03:16;;;;;;;;;32.33;29.67;;;;;15.18;76.10;101703.84;5080307;27;45414;-77
2023/06/03 05:05:42;;;;;;;;;31.67;29.00;;;;;15.28;75.91;101702.69;5080730;27;45277;-78
2023/06/03 05:08:08;;;;;;;;;29.00;28.00;;;;;15.20;75.35;101668.38;5080356;27;46493;-78
2023/06/03 05:10:34;;;;;;;;;31.33;29.67;;;;;15.38;75.20;101688.25;5080261;27;45415;-77
2023/06/03 05:13:00;;;;;;;;;35.67;29.33;;;;;15.42;75.14;101689.91;5079635;27;45416;-79
2023/06/03 05:15:25;;;;;;;;;35.33;31.00;;;;;15.42;74.57;101687.25;5079997;27;45460;-78
2023/06/03 05:17:51;;;;;;;;;31.67;28.00;;;;;15.45;74.86;101689.81;5079970;28;46329;-78
2023/06/03 05:20:17;;;;;;;;;28.33;27.00;;;;;15.47;74.92;101689.75;5080061;27;45551;-78
2023/06/03 05:22:42;;;;;;;;;28.67;25.67;;;;;15.58;74.09;101694.75;5080199;28;45382;-79
2023/06/03 05:25:08;;;;;;;;;33.67;29.00;;;;;15.54;73.71;101679.81;5079745;27;45551;-77
2023/06/03 05:27:34;;;;;;;;;27.67;27.00;;;;;15.57;73.84;101677.06;5079597;27;45541;-78
2023/06/03 05:29:59;;;;;;;;;27.33;23.00;;;;;15.61;73.50;101681.38;5079967;27;45431;-78
2023/06/03 05:32:24;;;;;;;;;26.67;24.67;;;;;15.72;73.11;101699.69;5079668;27;45326;-79
2023/06/03 05:34:50;;;;;;;;;22.33;21.67;;;;;15.70;73.20;101688.22;5079911;27;45484;-80
2023/06/03 05:37:15;;;;;;;;;22.33;20.67;;;;;15.75;72.79;101696.94;5079768;27;45331;-79
2023/06/03 05:39:41;;;;;;;;;23.33;18.00;;;;;15.74;72.70;101684.56;5079801;27;45259;-79
2023/06/03 05:42:06;;;;;;;;;17.33;16.67;;;;;15.80;72.05;101693.25;5079475;27;45463;-80
2023/06/03 05:44:32;;;;;;;;;24.33;19.00;;;;;15.84;71.27;101699.34;5080082;27;45279;-79
2023/06/03 05:46:57;;;;;;;;;33.33;22.00;;;;;15.91;71.55;101703.56;5079623;28;46089;-78
2023/06/03 05:49:23;;;;;;;;;23.67;23.67;;;;;15.94;71.10;101706.13;5079476;27;45396;-79
2023/06/03 05:51:48;;;;;;;;;29.00;21.67;;;;;16.00;70.74;101697.09;5079700;27;45408;-79
2023/06/03 05:54:13;;;;;;;;;28.33;25.33;;;;;16.00;70.54;101700.66;5079944;27;45175;-80
2023/06/03 05:56:39;;;;;;;;;24.33;21.67;;;;;15.97;70.14;101684.78;5079472;27;46961;-79
2023/06/03 05:59:05;;;;;;;;;24.67;23.33;;;;;16.05;70.14;101704.91;5079101;27;45320;-79
2023/06/03 06:01:32;;;;;;;;;25.67;24.33;;;;;15.94;69.82;101676.91;5079351;27;45355;-78
2023/06/03 06:03:58;;;;;;;;;27.33;21.67;;;;;16.16;69.49;101710.78;5077280;28;45495;-79
2023/06/03 06:06:23;;;;;;;;;24.00;19.33;;;;;16.17;69.12;101700.09;5079257;27;45932;-80
2023/06/03 06:08:48;;;;;;;;;18.67;18.00;;;;;16.23;68.71;101704.38;5079385;27;45493;-81
2023/06/03 06:11:13;;;;;;;;;25.67;19.67;;;;;16.22;68.47;101712.38;5079124;27;45320;-80
2023/06/03 06:13:39;;;;;;;;;28.67;22.67;;;;;16.25;68.87;101707.88;5079155;27;45240;-81
2023/06/03 06:16:05;;;;;;;;;28.33;22.33;;;;;16.35;68.16;101709.31;5079003;27;47010;-83
2023/06/03 06:18:31;;;;;;;;;25.67;21.67;;;;;16.39;67.56;101699.44;5078765;27;45416;-78
2023/06/03 06:20:57;;;;;;;;;19.33;19.33;;;;;16.21;67.58;101662.81;5079080;27;45230;-75
2023/06/03 06:23:23;;;;;;;;;27.00;22.00;;;;;16.50;67.04;101715.91;5079258;27;45573;-78
2023/06/03 06:25:50;;;;;;;;;24.00;20.00;;;;;16.58;67.62;101713.00;5078891;27;45314;-79
2023/06/03 06:28:20;;;;;;;;;24.67;18.67;;;;;16.64;66.86;101718.16;5075310;27;45508;-77
2023/06/03 06:30:46;;;;;;;;;22.33;17.00;;;;;16.67;66.37;101715.38;5074508;28;45393;-73
2023/06/03 06:33:13;;;;;;;;;21.00;19.67;;;;;16.64;66.27;101698.66;5078335;27;45526;-75
2023/06/03 06:35:39;;;;;;;;;17.33;16.67;;;;;16.72;66.31;101709.91;5078592;27;45376;-74
2023/06/03 06:38:05;;;;;;;;;23.00;20.33;;;;;16.76;65.73;101708.00;5076715;27;45439;-75
2023/06/03 06:40:33;;;;;;;;;23.67;19.33;;;;;16.78;65.63;101709.69;5078331;27;45494;-75
2023/06/03 06:42:59;;;;;;;;;22.00;18.00;;;;;16.84;65.35;101709.47;5077961;27;45499;-77
2023/06/03 06:45:28;;;;;;;;;20.67;18.00;;;;;16.91;65.25;101730.63;5078372;27;46361;-76
2023/06/03 06:48:12;;;;;;;;;24.00;21.00;;;;;16.91;65.31;101722.63;5077774;27;45360;-76
2023/06/03 06:50:54;;;;;;;;;18.67;17.00;;;;;16.99;64.85;101725.88;5076739;28;45459;-73
2023/06/03 06:53:21;;;;;;;;;22.00;19.67;;;;;17.02;64.33;101726.66;5074563;28;45470;-75
2023/06/03 06:55:55;;;;;;;;;17.67;17.67;;;;;17.05;63.79;101721.22;5067670;28;46070;-74
2023/06/03 06:58:21;;;;;;;;;18.33;18.33;;;;;17.12;63.44;101724.56;5077945;28;45466;-76
2023/06/03 07:00:48;;;;;;;;;25.67;21.00;;;;;17.14;63.99;101708.53;5077885;27;46539;-78
2023/06/03 07:03:16;;;;;;;;;24.00;22.00;;;;;17.29;63.50;101712.44;5078384;27;45241;-75
2023/06/03 07:05:42;;;;;;;;;19.33;14.00;;;;;17.74;61.67;101715.22;5076216;27;46597;-75
2023/06/03 07:08:07;;;;;;;;;19.67;18.00;;;;;17.84;61.11;101728.22;5077639;27;46489;-77
2023/06/03 07:10:33;;;;;;;;;20.67;18.00;;;;;17.75;60.67;101713.44;5078392;27;45296;-76
2023/06/03 07:12:59;;;;;;;;;9.00;7.00;;;;;17.86;60.75;101726.34;5078067;27;45632;-75
2023/06/03 07:15:25;;;;;;;;;19.67;18.67;;;;;17.91;60.59;101727.09;5077805;27;46513;-75
2023/06/03 07:17:51;;;;;;;;;20.67;19.33;;;;;18.64;60.03;101726.91;5076617;28;45462;-75
2023/06/03 07:20:41;;;;;;;;;18.33;15.67;;;;;19.38;58.38;101723.81;5076816;28;45555;-75
2023/06/03 07:23:11;;;;;;;;;16.33;14.67;;;;;19.59;56.91;101727.31;5067071;28;45585;-74
2023/06/03 07:25:46;;;;;;;;;17.00;16.67;;;;;19.55;56.37;101725.75;5077224;28;45587;-75
2023/06/03 07:28:20;;;;;;;;;15.67;15.67;;;;;19.99;54.70;101733.56;5077497;27;45480;-76
2023/06/03 07:30:49;;;;;;;;;17.33;13.67;;;;;20.32;53.32;101733.75;5077679;27;45484;-75
2023/06/03 07:33:27;;;;;;;;;13.33;13.33;;;;;20.09;54.16;101737.53;5075527;27;45465;-77
2023/06/03 07:36:01;;;;;;;;;18.00;14.67;;;;;19.72;55.20;101725.84;5077329;27;45363;-77
2023/06/03 07:38:39;;;;;;;;;16.67;14.67;;;;;19.44;55.72;101743.09;5077309;27;45292;-80
2023/06/03 07:41:08;;;;;;;;;15.33;14.67;;;;;19.24;54.61;101722.63;5077392;27;45335;-78
2023/06/03 07:43:35;;;;;;;;;13.00;13.00;;;;;19.16;55.11;101724.75;5077705;27;45753;-80
2023/06/03 07:46:08;;;;;;;;;17.33;14.00;;;;;19.09;55.17;101724.13;5076750;27;46767;-75
2023/06/03 07:48:37;;;;;;;;;11.67;11.67;;;;;19.03;55.88;101723.56;5075464;28;45470;-78
2023/06/03 07:51:02;;;;;;;;;17.00;15.33;;;;;18.94;55.62;101725.66;5076622;27;45506;-77
2023/06/03 07:53:30;;;;;;;;;18.67;14.00;;;;;18.90;55.27;101728.53;5077615;27;45308;-78
2023/06/03 07:55:57;;;;;;;;;19.67;12.00;;;;;18.97;55.17;101722.00;5076909;27;45480;-77
2023/06/03 07:58:25;;;;;;;;;14.33;13.33;;;;;19.02;54.95;101729.81;5075899;27;45882;-77
2023/06/03 08:00:54;;;;;;;;;13.00;13.00;;;;;19.14;55.07;101740.84;5077061;28;45394;-78
2023/06/03 08:03:25;;;;;;;;;15.67;11.00;;;;;19.16;53.24;101735.44;5077052;28;45475;-74
2023/06/03 08:05:51;;;;;;;;;14.00;13.00;;;;;19.21;53.52;101736.09;5076081;27;46773;-75
2023/06/03 08:08:24;;;;;;;;;11.33;11.33;;;;;19.26;54.05;101734.09;5076115;28;45458;-73
2023/06/03 08:10:49;;;;;;;;;11.33;11.00;;;;;19.61;53.43;101734.34;5076297;28;45359;-75
2023/06/03 08:13:17;;;;;;;;;13.00;12.33;;;;;20.17;51.69;101743.41;5077313;27;45320;-76
2023/06/03 08:15:43;;;;;;;;;13.67;11.67;;;;;20.27;50.56;101727.75;5077053;27;46423;-76
2023/06/03 08:18:09;;;;;;;;;7.00;6.00;;;;;20.26;50.45;101742.09;5077128;27;45389;-73
2023/06/03 08:20:36;;;;;;;;;13.00;10.33;;;;;20.11;49.93;101738.34;5077390;27;45389;-74
2023/06/03 08:23:03;;;;;;;;;15.33;11.00;;;;;20.11;50.52;101733.00;5077312;28;45364;-75
2023/06/03 08:25:28;;;;;;;;;10.00;10.00;;;;;20.14;50.20;101729.28;5077104;27;45431;-74
2023/06/03 08:27:54;;;;;;;;;10.33;10.33;;;;;20.46;50.63;101722.41;5076994;27;45263;-76
2023/06/03 08:30:20;;;;;;;;;13.33;11.33;;;;;21.79;48.76;101717.47;5077383;27;45375;-74
2023/06/03 08:32:47;;;;;;;;;16.00;11.67;;;;;22.23;47.14;101719.47;5077215;27;45296;-76
2023/06/03 08:35:15;;;;;;;;;13.33;10.00;;;;;22.32;45.70;101708.28;5077052;27;47082;-75
2023/06/03 08:37:42;;;;;;;;;10.33;10.00;;;;;21.99;45.28;101706.50;5077245;27;45399;-75
2023/06/03 08:40:12;;;;;;;;;10.33;7.33;;;;;21.76;46.34;101729.22;5077157;27;45265;-74
2023/06/03 08:42:48;;;;;;;;;9.00;8.67;;;;;21.63;46.14;101715.59;5077353;27;45304;-74
2023/06/03 08:45:18;;;;;;;;;10.33;10.33;;;;;21.49;45.06;101700.25;5076711;27;46484;-72
2023/06/03 08:47:47;;;;;;;;;7.67;7.67;;;;;21.44;45.51;101718.38;5076567;27;45298;-74
2023/06/03 08:50:17;;;;;;;;;7.33;7.33;;;;;21.24;44.94;101716.75;5076827;27;45425;-74
2023/06/03 08:52:45;;;;;;;;;7.67;7.33;;;;;21.12;45.42;101720.06;5077377;27;45495;-74
2023/06/03 08:55:14;;;;;;;;;10.33;9.00;;;;;21.01;45.38;101718.81;5076768;28;46477;-75
2023/06/03 08:57:51;;;;;;;;;12.00;9.00;;;;;20.97;45.83;101717.22;5076708;27;45318;-73
2023/06/03 09:00:25;;;;;;;;;1.33;0.00;;;;;20.99;45.04;101712.66;5078917;27;45217;-75
2023/06/03 09:02:52;;;;;;;;;6.33;6.00;;;;;21.23;43.07;101704.28;5080536;27;45131;-74
2023/06/03 09:05:19;;;;;;;;;13.67;8.00;;;;;21.27;43.88;101708.53;5080341;27;46651;-74
2023/06/03 09:07:47;;;;;;;;;8.33;7.00;;;;;21.32;43.32;101708.28;5080424;27;45695;-74
2023/06/03 09:10:15;;;;;;;;;10.00;7.33;;;;;21.33;43.40;101704.66;5080004;27;45589;-73
2023/06/03 09:12:41;;;;;;;;;9.00;6.00;;;;;21.54;42.95;101703.56;5080211;27;45451;-74
2023/06/03 09:15:07;;;;;;;;;8.00;8.00;;;;;21.77;42.45;101711.31;5080233;27;45886;-74
2023/06/03 09:17:35;;;;;;;;;8.00;8.00;;;;;22.13;42.00;101692.28;5079828;27;45424;-75
2023/06/03 09:20:02;;;;;;;;;9.00;7.33;;;;;22.82;41.23;101716.16;5080232;27;45592;-75
2023/06/03 09:22:28;;;;;;;;;8.00;6.67;;;;;23.33;39.60;101705.94;5080161;27;45321;-74
2023/06/03 09:24:54;;;;;;;;;6.00;6.00;;;;;23.62;37.87;101703.25;5079883;27;46771;-74
2023/06/03 09:27:20;;;;;;;;;6.67;6.67;;;;;23.86;37.46;101708.03;5080025;27;45322;-72
2023/06/03 09:29:45;;;;;;;;;9.00;7.00;;;;;23.77;37.54;101715.75;5080086;27;45358;-74
2023/06/03 09:32:10;;;;;;;;;6.33;5.67;;;;;23.74;37.38;101710.53;5080347;27;45343;-75
2023/06/03 09:34:36;;;;;;;;;4.00;2.33;;;;;23.69;36.96;101714.50;5079608;27;46547;-75
2023/06/03 09:37:09;;;;;;;;;5.00;3.33;;;;;23.64;37.21;101717.47;5079806;27;45216;-72
2023/06/03 09:39:35;;;;;;;;;7.00;4.00;;;;;24.20;36.07;101709.47;5079995;27;45297;-73
2023/06/03 09:42:02;;;;;;;;;7.00;5.00;;;;;25.42;35.60;101719.34;5079883;27;45343;-71
2023/06/03 09:44:39;;;;;;;;;5.00;4.00;;;;;27.12;34.32;101691.53;5079607;27;45508;-71
2023/06/03 09:47:05;;;;;;;;;5.33;4.00;;;;;28.58;30.82;101705.97;5079419;27;45393;-72
2023/06/03 09:49:31;;;;;;;;;4.33;4.00;;;;;30.49;29.97;101703.81;5079397;27;45312;-73
2023/06/03 09:51:56;;;;;;;;;7.00;5.00;;;;;32.37;29.71;101682.13;5079713;27;46353;-72
2023/06/03 09:54:23;;;;;;;;;6.00;4.67;;;;;34.16;25.54;101691.63;5079563;27;46700;-74
2023/06/03 09:56:50;;;;;;;;;6.33;5.00;;;;;35.88;24.02;101708.91;5079165;27;45401;-74
2023/06/03 09:59:17;;;;;;;;;1.67;1.00;;;;;37.37;24.35;101708.66;5079356;27;45393;-75
2023/06/03 10:01:46;;;;;;;;;10.00;9.00;;;;;38.51;21.44;101700.94;5079340;27;45508;-75
2023/06/03 10:04:13;;;;;;;;;3.00;3.00;;;;;39.41;20.54;101698.47;5078824;27;46151;-75
2023/06/03 10:06:39;;;;;;;;;4.67;4.67;;;;;40.32;19.79;101716.69;5079223;27;45321;-76
2023/06/03 10:09:21;;;;;;;;;4.00;2.00;;;;;40.94;20.34;101708.25;5079329;27;45344;-76
2023/06/03 10:11:51;;;;;;;;;7.00;7.00;;;;;41.52;19.14;101710.25;5079063;27;45435;-75
2023/06/03 10:14:25;;;;;;;;;4.00;2.67;;;;;42.36;20.97;101711.13;5079117;27;45199;-77
2023/06/03 10:17:02;;;;;;;;;3.00;3.00;;;;;42.56;17.20;101699.06;5077697;28;45283;-77
2023/06/03 10:19:28;;;;;;;;;4.00;3.00;;;;;42.82;16.72;101706.31;5079006;27;45286;-77
2023/06/03 10:21:55;;;;;;;;;4.33;3.00;;;;;43.03;16.82;101705.06;5079048;27;45411;-76
2023/06/03 10:24:22;;;;;;;;;6.33;4.67;;;;;43.16;15.48;101704.09;5079187;27;45520;-77
2023/06/03 10:26:48;;;;;;;;;2.67;2.00;;;;;43.34;17.36;101694.94;5078923;27;45328;-77
2023/06/03 10:29:15;;;;;;;;;3.00;2.00;;;;;43.53;16.84;101692.16;5078963;27;45345;-77
2023/06/03 10:31:43;;;;;;;;;3.25;3.25;;;;;43.46;15.96;101700.59;5079203;27;45366;-77
2023/06/03 10:34:10;;;;;;;;;4.50;3.25;;;;;43.64;14.84;101700.56;5077884;27;45930;-78
2023/06/03 10:36:36;;;;;;;;;3.50;3.00;;;;;43.73;14.07;101701.09;5078958;27;45468;-78
2023/06/03 10:39:08;;;;;;;;;4.75;4.75;;;;;43.54;15.62;101688.31;5078844;27;45804;-74
2023/06/03 10:41:37;;;;;;;;;2.25;2.25;;;;;43.30;14.67;101694.53;5079473;27;45239;-78
2023/06/03 10:44:03;;;;;;;;;3.25;3.25;;;;;43.02;13.78;101689.53;5078905;27;45644;-80
2023/06/03 10:46:28;;;;;;;;;5.75;3.75;;;;;43.11;15.33;101692.84;5078578;27;45328;-77
2023/06/03 10:48:54;;;;;;;;;4.75;3.00;;;;;43.07;14.39;101670.28;5079089;27;45411;-77
2023/06/03 10:51:33;;;;;;;;;1.50;1.50;;;;;42.82;14.33;101683.28;5079191;27;45262;-74
2023/06/03 10:54:10;;;;;;;;;4.50;4.50;;;;;42.33;14.41;101680.31;5078468;27;45893;-79
2023/06/03 10:56:42;;;;;;;;;5.75;4.00;;;;;41.40;13.98;101686.06;5078183;27;45356;-80
2023/06/03 10:59:11;;;;;;;;;2.00;2.00;;;;;40.24;15.10;101681.00;5078276;27;45474;-79
2023/06/03 11:02:04;;;;;;;;;4.00;3.00;;;;;39.30;15.94;101683.34;5078848;27;45621;-79
2023/06/03 11:04:36;;;;;;;;;2.67;2.67;;;;;38.19;16.51;101667.38;5078221;27;45447;-79
2023/06/03 11:07:03;;;;;;;;;4.33;3.67;;;;;36.91;16.51;101667.59;5078296;27;45360;-78
2023/06/03 11:09:37;;;;;;;;;3.00;3.00;;;;;35.43;18.05;101663.88;5078430;27;45479;-78
2023/06/03 11:12:06;;;;;;;;;3.00;1.67;;;;;34.26;18.72;101666.00;5078348;28;45394;-81
2023/06/03 11:14:40;;;;;;;;;3.00;3.00;;;;;33.11;19.41;101675.44;5078330;27;46388;-75